sensor_id;sensor_type;location;lat;lon;timestamp;temperature;humidity
12125;DHT22;6126;57.908;16.490;2022-08-25T00:01:56;12.90;85.60
12125;DHT22;6126;57.908;16.490;2022-08-25T00:04:24;12.70;85.50
12125;DHT22;6126;57.908;16.490;2022-08-25T00:06:52;12.80;85.60
12125;DHT22;6126;57.908;16.490;2022-08-25T00:09:22;12.60;85.40
12125;DHT22;6126;57.908;16.490;2022-08-25T00:11:49;13.10;86.00
12125;DHT22;6126;57.908;16.490;2022-08-25T00:14:19;12.70;85.70
12125;DHT22;6126;57.908;16.490;2022-08-25T00:16:47;12.70;85.80
12125;DHT22;6126;57.908;16.490;2022-08-25T00:19:21;12.80;85.90
12125;DHT22;6126;57.908;16.490;2022-08-25T00:21:50;12.80;85.90
12125;DHT22;6126;57.908;16.490;2022-08-25T00:24:17;12.70;85.90
12125;DHT22;6126;57.908;16.490;2022-08-25T00:26:47;12.90;86.30
12125;DHT22;6126;57.908;16.490;2022-08-25T00:29:15;12.90;86.40
12125;DHT22;6126;57.908;16.490;2022-08-25T00:31:42;12.70;86.30
12125;DHT22;6126;57.908;16.490;2022-08-25T00:34:12;12.90;86.60
12125;DHT22;6126;57.908;16.490;2022-08-25T00:36:41;12.90;86.60
12125;DHT22;6126;57.908;16.490;2022-08-25T00:39:08;12.70;86.50
12125;DHT22;6126;57.908;16.490;2022-08-25T00:41:37;12.80;86.60
12125;DHT22;6126;57.908;16.490;2022-08-25T00:44:07;12.60;86.50
12125;DHT22;6126;57.908;16.490;2022-08-25T00:46:42;12.70;86.70
12125;DHT22;6126;57.908;16.490;2022-08-25T00:49:35;12.60;86.70
12125;DHT22;6126;57.908;16.490;2022-08-25T00:52:21;12.60;86.60
12125;DHT22;6126;57.908;16.490;2022-08-25T00:54:51;12.70;86.90
12125;DHT22;6126;57.908;16.490;2022-08-25T00:57:31;12.40;86.70
12125;DHT22;6126;57.908;16.490;2022-08-25T01:00:08;12.80;87.10
12125;DHT22;6126;57.908;16.490;2022-08-25T01:02:40;12.80;87.20
12125;DHT22;6126;57.908;16.490;2022-08-25T01:05:07;12.50;87.00
12125;DHT22;6126;57.908;16.490;2022-08-25T01:07:33;12.50;87.10
12125;DHT22;6126;57.908;16.490;2022-08-25T01:10:00;12.50;87.30
12125;DHT22;6126;57.908;16.490;2022-08-25T01:12:26;12.60;87.50
12125;DHT22;6126;57.908;16.490;2022-08-25T01:14:52;12.40;87.30
12125;DHT22;6126;57.908;16.490;2022-08-25T01:17:21;12.90;87.80
12125;DHT22;6126;57.908;16.490;2022-08-25T01:19:47;12.60;87.40
12125;DHT22;6126;57.908;16.490;2022-08-25T01:22:12;12.80;87.80
12125;DHT22;6126;57.908;16.490;2022-08-25T01:24:59;12.70;87.70
12125;DHT22;6126;57.908;16.490;2022-08-25T01:27:29;12.40;87.50
12125;DHT22;6126;57.908;16.490;2022-08-25T01:29:55;12.40;87.60
12125;DHT22;6126;57.908;16.490;2022-08-25T01:32:22;12.50;87.80
12125;DHT22;6126;57.908;16.490;2022-08-25T01:34:48;12.50;87.90
12125;DHT22;6126;57.908;16.490;2022-08-25T01:37:15;12.70;88.30
12125;DHT22;6126;57.908;16.490;2022-08-25T01:39:42;12.60;88.20
12125;DHT22;6126;57.908;16.490;2022-08-25T01:42:28;12.20;87.70
12125;DHT22;6126;57.908;16.490;2022-08-25T01:45:16;12.60;88.10
12125;DHT22;6126;57.908;16.490;2022-08-25T01:47:42;12.50;88.20
12125;DHT22;6126;57.908;16.490;2022-08-25T01:50:08;12.20;87.90
12125;DHT22;6126;57.908;16.490;2022-08-25T01:53:29;12.40;88.20
12125;DHT22;6126;57.908;16.490;2022-08-25T01:55:36;12.30;88.30
12125;DHT22;6126;57.908;16.490;2022-08-25T01:58:21;12.40;88.60
12125;DHT22;6126;57.908;16.490;2022-08-25T02:00:51;12.50;88.60
12125;DHT22;6126;57.908;16.490;2022-08-25T02:03:20;12.40;88.40
12125;DHT22;6126;57.908;16.490;2022-08-25T02:05:47;12.40;88.30
12125;DHT22;6126;57.908;16.490;2022-08-25T02:08:13;12.40;88.30
12125;DHT22;6126;57.908;16.490;2022-08-25T02:10:40;12.40;88.30
12125;DHT22;6126;57.908;16.490;2022-08-25T02:13:06;12.70;88.80
12125;DHT22;6126;57.908;16.490;2022-08-25T02:15:33;12.50;88.70
12125;DHT22;6126;57.908;16.490;2022-08-25T02:18:01;12.30;88.60
12125;DHT22;6126;57.908;16.490;2022-08-25T02:20:27;12.50;88.80
12125;DHT22;6126;57.908;16.490;2022-08-25T02:22:53;12.50;88.90
12125;DHT22;6126;57.908;16.490;2022-08-25T02:25:19;12.40;88.80
12125;DHT22;6126;57.908;16.490;2022-08-25T02:27:45;12.60;89.10
12125;DHT22;6126;57.908;16.490;2022-08-25T02:30:12;12.20;88.90
12125;DHT22;6126;57.908;16.490;2022-08-25T02:32:39;12.50;89.40
12125;DHT22;6126;57.908;16.490;2022-08-25T02:35:05;12.10;88.90
12125;DHT22;6126;57.908;16.490;2022-08-25T02:37:32;12.30;89.20
12125;DHT22;6126;57.908;16.490;2022-08-25T02:39:58;12.40;89.40
12125;DHT22;6126;57.908;16.490;2022-08-25T02:42:25;12.50;89.50
12125;DHT22;6126;57.908;16.490;2022-08-25T02:44:51;12.20;89.30
12125;DHT22;6126;57.908;16.490;2022-08-25T02:47:19;12.10;89.30
12125;DHT22;6126;57.908;16.490;2022-08-25T02:49:46;12.40;89.60
12125;DHT22;6126;57.908;16.490;2022-08-25T02:52:13;12.20;89.50
12125;DHT22;6126;57.908;16.490;2022-08-25T02:54:40;12.20;89.50
12125;DHT22;6126;57.908;16.490;2022-08-25T02:57:06;12.50;89.70
12125;DHT22;6126;57.908;16.490;2022-08-25T02:59:32;12.40;89.50
12125;DHT22;6126;57.908;16.490;2022-08-25T03:01:59;12.50;89.50
12125;DHT22;6126;57.908;16.490;2022-08-25T03:04:25;12.60;89.70
12125;DHT22;6126;57.908;16.490;2022-08-25T03:06:51;12.50;89.70
12125;DHT22;6126;57.908;16.490;2022-08-25T03:09:17;12.20;89.60
12125;DHT22;6126;57.908;16.490;2022-08-25T03:11:43;12.20;89.80
12125;DHT22;6126;57.908;16.490;2022-08-25T03:14:09;12.20;89.90
12125;DHT22;6126;57.908;16.490;2022-08-25T03:16:36;12.30;90.00
12125;DHT22;6126;57.908;16.490;2022-08-25T03:19:02;11.90;89.70
12125;DHT22;6126;57.908;16.490;2022-08-25T03:21:29;12.20;90.00
12125;DHT22;6126;57.908;16.490;2022-08-25T03:23:57;12.20;90.00
12125;DHT22;6126;57.908;16.490;2022-08-25T03:26:23;12.40;90.10
12125;DHT22;6126;57.908;16.490;2022-08-25T03:29:08;12.20;90.00
12125;DHT22;6126;57.908;16.490;2022-08-25T03:31:35;12.40;90.10
12125;DHT22;6126;57.908;16.490;2022-08-25T03:34:02;12.00;90.00
12125;DHT22;6126;57.908;16.490;2022-08-25T03:36:28;12.30;90.20
12125;DHT22;6126;57.908;16.490;2022-08-25T03:38:55;12.00;90.10
12125;DHT22;6126;57.908;16.490;2022-08-25T03:41:25;12.10;90.20
12125;DHT22;6126;57.908;16.490;2022-08-25T03:43:58;12.10;90.20
12125;DHT22;6126;57.908;16.490;2022-08-25T03:46:29;12.00;90.20
12125;DHT22;6126;57.908;16.490;2022-08-25T03:49:03;12.10;90.30
12125;DHT22;6126;57.908;16.490;2022-08-25T03:51:34;12.00;90.30
12125;DHT22;6126;57.908;16.490;2022-08-25T03:54:03;11.80;90.10
12125;DHT22;6126;57.908;16.490;2022-08-25T03:56:30;12.20;90.40
12125;DHT22;6126;57.908;16.490;2022-08-25T03:58:56;11.80;90.20
12125;DHT22;6126;57.908;16.490;2022-08-25T04:01:23;12.10;90.40
12125;DHT22;6126;57.908;16.490;2022-08-25T04:03:49;12.10;90.50
12125;DHT22;6126;57.908;16.490;2022-08-25T04:06:16;12.00;90.50
12125;DHT22;6126;57.908;16.490;2022-08-25T04:08:43;12.00;90.50
12125;DHT22;6126;57.908;16.490;2022-08-25T04:11:17;12.10;90.50
12125;DHT22;6126;57.908;16.490;2022-08-25T04:13:47;12.10;90.40
12125;DHT22;6126;57.908;16.490;2022-08-25T04:16:16;12.00;90.40
12125;DHT22;6126;57.908;16.490;2022-08-25T04:18:45;12.10;90.50
12125;DHT22;6126;57.908;16.490;2022-08-25T04:21:12;11.90;90.50
12125;DHT22;6126;57.908;16.490;2022-08-25T04:23:40;12.00;90.60
12125;DHT22;6126;57.908;16.490;2022-08-25T04:26:11;11.90;90.50
12125;DHT22;6126;57.908;16.490;2022-08-25T04:28:39;11.90;90.50
12125;DHT22;6126;57.908;16.490;2022-08-25T04:31:07;12.10;90.50
12125;DHT22;6126;57.908;16.490;2022-08-25T04:33:35;12.00;90.50
12125;DHT22;6126;57.908;16.490;2022-08-25T04:36:02;12.20;90.60
12125;DHT22;6126;57.908;16.490;2022-08-25T04:38:29;11.80;90.50
12125;DHT22;6126;57.908;16.490;2022-08-25T04:41:01;12.00;90.50
12125;DHT22;6126;57.908;16.490;2022-08-25T04:43:30;12.30;91.00
12125;DHT22;6126;57.908;16.490;2022-08-25T04:45:56;11.90;90.50
12125;DHT22;6126;57.908;16.490;2022-08-25T04:48:23;12.30;90.70
12125;DHT22;6126;57.908;16.490;2022-08-25T04:50:49;12.10;90.60
12125;DHT22;6126;57.908;16.490;2022-08-25T04:53:16;12.10;90.60
12125;DHT22;6126;57.908;16.490;2022-08-25T04:55:46;12.40;90.70
12125;DHT22;6126;57.908;16.490;2022-08-25T04:58:14;12.10;90.60
12125;DHT22;6126;57.908;16.490;2022-08-25T05:00:42;12.40;90.70
12125;DHT22;6126;57.908;16.490;2022-08-25T05:03:08;12.20;90.70
12125;DHT22;6126;57.908;16.490;2022-08-25T05:05:36;12.40;90.80
12125;DHT22;6126;57.908;16.490;2022-08-25T05:08:04;12.50;90.80
12125;DHT22;6126;57.908;16.490;2022-08-25T05:10:32;12.50;90.70
12125;DHT22;6126;57.908;16.490;2022-08-25T05:12:58;12.60;90.70
12125;DHT22;6126;57.908;16.490;2022-08-25T05:15:27;12.70;90.70
12125;DHT22;6126;57.908;16.490;2022-08-25T05:18:12;12.60;90.70
12125;DHT22;6126;57.908;16.490;2022-08-25T05:20:38;12.60;90.70
12125;DHT22;6126;57.908;16.490;2022-08-25T05:23:04;12.90;90.80
12125;DHT22;6126;57.908;16.490;2022-08-25T05:25:30;12.90;90.80
12125;DHT22;6126;57.908;16.490;2022-08-25T05:27:57;12.90;90.70
12125;DHT22;6126;57.908;16.490;2022-08-25T05:30:23;13.20;90.70
12125;DHT22;6126;57.908;16.490;2022-08-25T05:32:49;13.40;90.80
12125;DHT22;6126;57.908;16.490;2022-08-25T05:35:15;13.50;90.70
12125;DHT22;6126;57.908;16.490;2022-08-25T05:37:41;13.60;90.80
12125;DHT22;6126;57.908;16.490;2022-08-25T05:40:08;13.40;90.60
12125;DHT22;6126;57.908;16.490;2022-08-25T05:42:34;13.70;90.70
12125;DHT22;6126;57.908;16.490;2022-08-25T05:45:02;13.90;90.80
12125;DHT22;6126;57.908;16.490;2022-08-25T05:47:29;14.00;90.80
12125;DHT22;6126;57.908;16.490;2022-08-25T05:49:54;14.10;90.80
12125;DHT22;6126;57.908;16.490;2022-08-25T05:52:20;14.10;90.80
12125;DHT22;6126;57.908;16.490;2022-08-25T05:54:46;14.40;90.80
12125;DHT22;6126;57.908;16.490;2022-08-25T05:57:12;14.20;90.70
12125;DHT22;6126;57.908;16.490;2022-08-25T05:59:38;14.40;90.80
12125;DHT22;6126;57.908;16.490;2022-08-25T06:02:04;14.40;90.70
12125;DHT22;6126;57.908;16.490;2022-08-25T06:04:50;14.60;90.80
12125;DHT22;6126;57.908;16.490;2022-08-25T06:07:16;14.80;90.90
12125;DHT22;6126;57.908;16.490;2022-08-25T06:09:43;14.90;90.80
12125;DHT22;6126;57.908;16.490;2022-08-25T06:12:11;15.00;90.80
12125;DHT22;6126;57.908;16.490;2022-08-25T06:14:37;15.40;91.00
12125;DHT22;6126;57.908;16.490;2022-08-25T06:17:03;15.40;90.90
12125;DHT22;6126;57.908;16.490;2022-08-25T06:19:29;15.20;90.80
12125;DHT22;6126;57.908;16.490;2022-08-25T06:21:56;15.60;90.90
12125;DHT22;6126;57.908;16.490;2022-08-25T06:24:26;15.80;90.90
12125;DHT22;6126;57.908;16.490;2022-08-25T06:26:53;15.80;90.70
12125;DHT22;6126;57.908;16.490;2022-08-25T06:29:20;16.20;90.90
12125;DHT22;6126;57.908;16.490;2022-08-25T06:31:47;16.10;90.80
12125;DHT22;6126;57.908;16.490;2022-08-25T06:34:15;16.30;90.80
12125;DHT22;6126;57.908;16.490;2022-08-25T06:36:41;16.30;90.80
12125;DHT22;6126;57.908;16.490;2022-08-25T06:39:08;16.30;90.70
12125;DHT22;6126;57.908;16.490;2022-08-25T06:41:35;16.30;90.60
12125;DHT22;6126;57.908;16.490;2022-08-25T06:44:01;16.70;90.70
12125;DHT22;6126;57.908;16.490;2022-08-25T06:46:27;16.90;90.70
12125;DHT22;6126;57.908;16.490;2022-08-25T06:48:56;16.80;90.60
12125;DHT22;6126;57.908;16.490;2022-08-25T06:51:23;16.70;90.50
12125;DHT22;6126;57.908;16.490;2022-08-25T06:53:51;16.90;90.60
12125;DHT22;6126;57.908;16.490;2022-08-25T06:56:19;17.20;90.60
12125;DHT22;6126;57.908;16.490;2022-08-25T06:58:47;17.30;90.60
12125;DHT22;6126;57.908;16.490;2022-08-25T07:01:18;17.30;90.40
12125;DHT22;6126;57.908;16.490;2022-08-25T07:03:52;17.40;90.40
12125;DHT22;6126;57.908;16.490;2022-08-25T07:06:23;17.50;90.40
12125;DHT22;6126;57.908;16.490;2022-08-25T07:08:49;17.60;90.40
12125;DHT22;6126;57.908;16.490;2022-08-25T07:11:15;17.70;90.40
12125;DHT22;6126;57.908;16.490;2022-08-25T07:13:43;17.80;90.20
12125;DHT22;6126;57.908;16.490;2022-08-25T07:16:09;17.90;90.00
12125;DHT22;6126;57.908;16.490;2022-08-25T07:18:40;18.00;90.00
12125;DHT22;6126;57.908;16.490;2022-08-25T07:21:06;17.90;89.60
12125;DHT22;6126;57.908;16.490;2022-08-25T07:23:32;18.20;89.70
12125;DHT22;6126;57.908;16.490;2022-08-25T07:26:10;18.20;89.40
12125;DHT22;6126;57.908;16.490;2022-08-25T07:28:39;18.30;89.40
12125;DHT22;6126;57.908;16.490;2022-08-25T07:31:06;18.40;89.10
12125;DHT22;6126;57.908;16.490;2022-08-25T07:33:32;18.50;89.00
12125;DHT22;6126;57.908;16.490;2022-08-25T07:35:58;18.60;88.60
12125;DHT22;6126;57.908;16.490;2022-08-25T07:38:24;18.70;88.30
12125;DHT22;6126;57.908;16.490;2022-08-25T07:40:50;18.80;88.10
12125;DHT22;6126;57.908;16.490;2022-08-25T07:43:21;18.80;87.90
12125;DHT22;6126;57.908;16.490;2022-08-25T07:45:47;18.90;87.70
12125;DHT22;6126;57.908;16.490;2022-08-25T07:48:14;19.00;87.40
12125;DHT22;6126;57.908;16.490;2022-08-25T07:50:43;19.10;87.10
12125;DHT22;6126;57.908;16.490;2022-08-25T07:53:10;19.20;86.80
12125;DHT22;6126;57.908;16.490;2022-08-25T07:55:38;19.30;86.50
12125;DHT22;6126;57.908;16.490;2022-08-25T07:58:08;19.40;86.30
12125;DHT22;6126;57.908;16.490;2022-08-25T08:00:36;19.40;85.90
12125;DHT22;6126;57.908;16.490;2022-08-25T08:03:05;19.60;85.60
12125;DHT22;6126;57.908;16.490;2022-08-25T08:05:33;19.70;85.30
12125;DHT22;6126;57.908;16.490;2022-08-25T08:08:01;19.80;84.80
12125;DHT22;6126;57.908;16.490;2022-08-25T08:10:28;19.90;84.40
12125;DHT22;6126;57.908;16.490;2022-08-25T08:12:54;20.00;84.00
12125;DHT22;6126;57.908;16.490;2022-08-25T08:15:20;20.10;83.60
12125;DHT22;6126;57.908;16.490;2022-08-25T08:17:46;20.20;83.20
12125;DHT22;6126;57.908;16.490;2022-08-25T08:20:12;20.30;82.80
12125;DHT22;6126;57.908;16.490;2022-08-25T08:22:40;20.40;82.30
12125;DHT22;6126;57.908;16.490;2022-08-25T08:25:09;20.50;82.00
12125;DHT22;6126;57.908;16.490;2022-08-25T08:27:35;20.50;81.50
12125;DHT22;6126;57.908;16.490;2022-08-25T08:30:03;20.60;81.00
12125;DHT22;6126;57.908;16.490;2022-08-25T08:32:30;20.70;80.60
12125;DHT22;6126;57.908;16.490;2022-08-25T08:34:56;20.80;80.20
12125;DHT22;6126;57.908;16.490;2022-08-25T08:37:22;20.90;80.00
12125;DHT22;6126;57.908;16.490;2022-08-25T08:39:48;21.00;79.50
12125;DHT22;6126;57.908;16.490;2022-08-25T08:46:00;21.00;78.60
12125;DHT22;6126;57.908;16.490;2022-08-25T08:48:31;21.10;78.50
12125;DHT22;6126;57.908;16.490;2022-08-25T08:51:20;21.20;77.90
12125;DHT22;6126;57.908;16.490;2022-08-25T08:56:37;21.30;77.20
12125;DHT22;6126;57.908;16.490;2022-08-25T08:59:14;21.40;76.80
12125;DHT22;6126;57.908;16.490;2022-08-25T09:01:51;21.50;76.30
12125;DHT22;6126;57.908;16.490;2022-08-25T09:04:47;21.60;75.90
12125;DHT22;6126;57.908;16.490;2022-08-25T09:07:23;21.80;75.50
12125;DHT22;6126;57.908;16.490;2022-08-25T09:09:55;21.80;75.00
12125;DHT22;6126;57.908;16.490;2022-08-25T09:12:36;21.80;74.70
12125;DHT22;6126;57.908;16.490;2022-08-25T09:32:14;22.50;72.50
12125;DHT22;6126;57.908;16.490;2022-08-25T09:34:42;22.60;72.10
12125;DHT22;6126;57.908;16.490;2022-08-25T09:37:10;22.70;71.90
12125;DHT22;6126;57.908;16.490;2022-08-25T09:39:35;22.80;71.50
12125;DHT22;6126;57.908;16.490;2022-08-25T09:42:03;22.80;71.30
12125;DHT22;6126;57.908;16.490;2022-08-25T09:44:41;22.90;71.20
12125;DHT22;6126;57.908;16.490;2022-08-25T09:50:00;22.90;71.00
12125;DHT22;6126;57.908;16.490;2022-08-25T09:57:51;23.10;70.40
12125;DHT22;6126;57.908;16.490;2022-08-25T10:03:36;23.10;70.00
12125;DHT22;6126;57.908;16.490;2022-08-25T10:06:07;23.10;70.00
12125;DHT22;6126;57.908;16.490;2022-08-25T10:08:50;23.20;69.90
12125;DHT22;6126;57.908;16.490;2022-08-25T10:11:40;23.20;69.70
12125;DHT22;6126;57.908;16.490;2022-08-25T10:17:17;23.50;69.30
12125;DHT22;6126;57.908;16.490;2022-08-25T10:22:38;23.40;68.90
12125;DHT22;6126;57.908;16.490;2022-08-25T10:25:08;23.40;68.90
12125;DHT22;6126;57.908;16.490;2022-08-25T10:30:23;23.40;68.60
12125;DHT22;6126;57.908;16.490;2022-08-25T10:38:35;23.70;67.70
12125;DHT22;6126;57.908;16.490;2022-08-25T10:56:32;24.00;66.60
12125;DHT22;6126;57.908;16.490;2022-08-25T10:59:18;24.00;66.20
12125;DHT22;6126;57.908;16.490;2022-08-25T11:11:27;24.30;65.40
12125;DHT22;6126;57.908;16.490;2022-08-25T11:14:04;24.30;65.40
12125;DHT22;6126;57.908;16.490;2022-08-25T11:17:09;24.30;65.30
12125;DHT22;6126;57.908;16.490;2022-08-25T11:19:46;24.20;65.20
12125;DHT22;6126;57.908;16.490;2022-08-25T11:22:20;24.10;65.00
12125;DHT22;6126;57.908;16.490;2022-08-25T11:28:48;24.10;65.30
12125;DHT22;6126;57.908;16.490;2022-08-25T11:31:20;24.10;65.10
12125;DHT22;6126;57.908;16.490;2022-08-25T11:33:49;24.10;64.90
12125;DHT22;6126;57.908;16.490;2022-08-25T11:36:29;24.20;64.80
12125;DHT22;6126;57.908;16.490;2022-08-25T11:50:33;24.30;64.00
12125;DHT22;6126;57.908;16.490;2022-08-25T11:55:51;24.50;63.80
12125;DHT22;6126;57.908;16.490;2022-08-25T11:58:43;24.50;63.50
12125;DHT22;6126;57.908;16.490;2022-08-25T12:04:32;24.50;63.30
12125;DHT22;6126;57.908;16.490;2022-08-25T12:15:32;24.30;63.20
12125;DHT22;6126;57.908;16.490;2022-08-25T12:23:43;24.00;63.20
12125;DHT22;6126;57.908;16.490;2022-08-25T12:26:48;24.10;63.30
12125;DHT22;6126;57.908;16.490;2022-08-25T12:29:44;24.10;63.00
12125;DHT22;6126;57.908;16.490;2022-08-25T12:35:30;24.30;62.50
12125;DHT22;6126;57.908;16.490;2022-08-25T12:38:08;24.30;62.40
12125;DHT22;6126;57.908;16.490;2022-08-25T12:43:12;24.20;62.50
12125;DHT22;6126;57.908;16.490;2022-08-25T12:54:34;24.10;62.70
12125;DHT22;6126;57.908;16.490;2022-08-25T13:00:24;24.30;62.40
12125;DHT22;6126;57.908;16.490;2022-08-25T13:09:44;24.30;62.10
12125;DHT22;6126;57.908;16.490;2022-08-25T13:12:21;24.20;62.20
12125;DHT22;6126;57.908;16.490;2022-08-25T13:14:59;24.00;62.40
12125;DHT22;6126;57.908;16.490;2022-08-25T13:17:28;24.00;62.40
12125;DHT22;6126;57.908;16.490;2022-08-25T13:20:19;24.00;62.60
12125;DHT22;6126;57.908;16.490;2022-08-25T13:22:51;24.00;62.70
12125;DHT22;6126;57.908;16.490;2022-08-25T13:25:23;24.10;62.60
12125;DHT22;6126;57.908;16.490;2022-08-25T13:27:55;24.20;62.40
12125;DHT22;6126;57.908;16.490;2022-08-25T13:30:34;24.30;62.30
12125;DHT22;6126;57.908;16.490;2022-08-25T13:33:19;24.30;62.20
12125;DHT22;6126;57.908;16.490;2022-08-25T13:35:49;24.30;62.30
12125;DHT22;6126;57.908;16.490;2022-08-25T13:38:36;24.20;62.30
12125;DHT22;6126;57.908;16.490;2022-08-25T13:41:06;24.10;62.40
12125;DHT22;6126;57.908;16.490;2022-08-25T13:43:35;24.10;62.50
12125;DHT22;6126;57.908;16.490;2022-08-25T13:46:03;24.10;62.60
12125;DHT22;6126;57.908;16.490;2022-08-25T13:48:37;24.00;62.50
12125;DHT22;6126;57.908;16.490;2022-08-25T13:51:23;24.00;62.40
12125;DHT22;6126;57.908;16.490;2022-08-25T13:54:00;23.90;62.80
12125;DHT22;6126;57.908;16.490;2022-08-25T13:56:39;23.80;62.70
12125;DHT22;6126;57.908;16.490;2022-08-25T13:59:23;23.90;62.60
12125;DHT22;6126;57.908;16.490;2022-08-25T14:01:53;24.00;62.40
12125;DHT22;6126;57.908;16.490;2022-08-25T14:06:46;24.00;62.40
12125;DHT22;6126;57.908;16.490;2022-08-25T14:09:17;24.00;62.40
12125;DHT22;6126;57.908;16.490;2022-08-25T14:11:54;24.00;62.40
12125;DHT22;6126;57.908;16.490;2022-08-25T14:16:48;24.00;62.30
12125;DHT22;6126;57.908;16.490;2022-08-25T14:19:20;24.00;62.40
12125;DHT22;6126;57.908;16.490;2022-08-25T14:21:48;23.90;62.30
12125;DHT22;6126;57.908;16.490;2022-08-25T14:24:20;23.90;62.50
12125;DHT22;6126;57.908;16.490;2022-08-25T14:26:48;23.70;62.70
12125;DHT22;6126;57.908;16.490;2022-08-25T14:29:15;23.70;62.90
12125;DHT22;6126;57.908;16.490;2022-08-25T14:31:43;23.60;62.80
12125;DHT22;6126;57.908;16.490;2022-08-25T14:34:17;23.60;62.70
12125;DHT22;6126;57.908;16.490;2022-08-25T14:36:46;23.50;62.90
12125;DHT22;6126;57.908;16.490;2022-08-25T14:39:13;23.40;62.90
12125;DHT22;6126;57.908;16.490;2022-08-25T14:41:41;23.40;63.00
12125;DHT22;6126;57.908;16.490;2022-08-25T14:44:09;23.40;62.90
12125;DHT22;6126;57.908;16.490;2022-08-25T14:46:39;23.30;62.90
12125;DHT22;6126;57.908;16.490;2022-08-25T14:49:10;23.20;62.80
12125;DHT22;6126;57.908;16.490;2022-08-25T14:51:40;23.30;62.80
12125;DHT22;6126;57.908;16.490;2022-08-25T14:54:10;23.20;62.60
12125;DHT22;6126;57.908;16.490;2022-08-25T14:56:40;23.10;62.70
12125;DHT22;6126;57.908;16.490;2022-08-25T14:59:06;23.20;62.80
12125;DHT22;6126;57.908;16.490;2022-08-25T15:01:32;23.20;62.70
12125;DHT22;6126;57.908;16.490;2022-08-25T15:04:09;23.10;62.60
12125;DHT22;6126;57.908;16.490;2022-08-25T15:06:52;23.10;62.70
12125;DHT22;6126;57.908;16.490;2022-08-25T15:09:20;23.00;62.70
12125;DHT22;6126;57.908;16.490;2022-08-25T15:11:50;23.00;62.70
12125;DHT22;6126;57.908;16.490;2022-08-25T15:14:20;22.90;62.60
12125;DHT22;6126;57.908;16.490;2022-08-25T15:16:52;22.90;62.70
12125;DHT22;6126;57.908;16.490;2022-08-25T15:19:22;22.80;62.80
12125;DHT22;6126;57.908;16.490;2022-08-25T15:21:51;22.80;62.90
12125;DHT22;6126;57.908;16.490;2022-08-25T15:24:18;22.80;62.80
12125;DHT22;6126;57.908;16.490;2022-08-25T15:26:49;22.80;63.60
12125;DHT22;6126;57.908;16.490;2022-08-25T15:29:18;22.80;62.70
12125;DHT22;6126;57.908;16.490;2022-08-25T15:31:45;22.80;62.70
12125;DHT22;6126;57.908;16.490;2022-08-25T15:34:12;22.90;62.70
12125;DHT22;6126;57.908;16.490;2022-08-25T15:36:39;22.90;62.70
12125;DHT22;6126;57.908;16.490;2022-08-25T15:39:05;22.90;62.50
12125;DHT22;6126;57.908;16.490;2022-08-25T15:41:31;22.80;62.60
12125;DHT22;6126;57.908;16.490;2022-08-25T15:43:58;22.70;62.70
12125;DHT22;6126;57.908;16.490;2022-08-25T15:46:26;22.70;62.80
12125;DHT22;6126;57.908;16.490;2022-08-25T15:48:55;22.70;62.80
12125;DHT22;6126;57.908;16.490;2022-08-25T15:51:22;22.60;63.60
12125;DHT22;6126;57.908;16.490;2022-08-25T15:53:48;22.50;63.20
12125;DHT22;6126;57.908;16.490;2022-08-25T15:56:14;22.40;63.50
12125;DHT22;6126;57.908;16.490;2022-08-25T15:58:46;22.30;63.60
12125;DHT22;6126;57.908;16.490;2022-08-25T16:01:15;22.20;63.80
12125;DHT22;6126;57.908;16.490;2022-08-25T16:03:43;22.20;64.10
12125;DHT22;6126;57.908;16.490;2022-08-25T16:06:09;22.20;64.10
12125;DHT22;6126;57.908;16.490;2022-08-25T16:08:36;22.10;64.20
12125;DHT22;6126;57.908;16.490;2022-08-25T16:11:04;22.10;64.30
12125;DHT22;6126;57.908;16.490;2022-08-25T16:13:31;22.10;64.50
12125;DHT22;6126;57.908;16.490;2022-08-25T16:15:57;22.00;64.40
12125;DHT22;6126;57.908;16.490;2022-08-25T16:18:24;21.90;64.60
12125;DHT22;6126;57.908;16.490;2022-08-25T16:20:51;21.90;64.90
12125;DHT22;6126;57.908;16.490;2022-08-25T16:23:18;21.80;65.00
12125;DHT22;6126;57.908;16.490;2022-08-25T16:25:45;21.80;65.10
12125;DHT22;6126;57.908;16.490;2022-08-25T16:28:14;21.70;65.10
12125;DHT22;6126;57.908;16.490;2022-08-25T16:30:47;21.70;65.40
12125;DHT22;6126;57.908;16.490;2022-08-25T16:33:14;21.70;65.40
12125;DHT22;6126;57.908;16.490;2022-08-25T16:35:42;21.70;65.50
12125;DHT22;6126;57.908;16.490;2022-08-25T16:38:09;21.80;65.50
12125;DHT22;6126;57.908;16.490;2022-08-25T16:40:38;21.70;65.50
12125;DHT22;6126;57.908;16.490;2022-08-25T16:43:07;21.70;65.60
12125;DHT22;6126;57.908;16.490;2022-08-25T16:45:34;21.60;65.80
12125;DHT22;6126;57.908;16.490;2022-08-25T16:48:02;21.60;66.00
12125;DHT22;6126;57.908;16.490;2022-08-25T16:50:28;21.50;66.10
12125;DHT22;6126;57.908;16.490;2022-08-25T16:52:56;21.50;66.30
12125;DHT22;6126;57.908;16.490;2022-08-25T16:55:41;21.50;66.40
12125;DHT22;6126;57.908;16.490;2022-08-25T16:58:08;21.40;66.30
12125;DHT22;6126;57.908;16.490;2022-08-25T17:00:37;21.40;66.50
12125;DHT22;6126;57.908;16.490;2022-08-25T17:03:04;21.40;66.80
12125;DHT22;6126;57.908;16.490;2022-08-25T17:05:31;21.30;66.80
12125;DHT22;6126;57.908;16.490;2022-08-25T17:08:03;21.30;67.00
12125;DHT22;6126;57.908;16.490;2022-08-25T17:10:47;21.20;67.20
12125;DHT22;6126;57.908;16.490;2022-08-25T17:13:13;21.00;67.40
12125;DHT22;6126;57.908;16.490;2022-08-25T17:15:43;21.00;67.80
12125;DHT22;6126;57.908;16.490;2022-08-25T17:18:11;20.90;67.90
12125;DHT22;6126;57.908;16.490;2022-08-25T17:20:38;20.90;68.00
12125;DHT22;6126;57.908;16.490;2022-08-25T17:23:06;20.90;68.10
12125;DHT22;6126;57.908;16.490;2022-08-25T17:25:36;20.90;68.20
12125;DHT22;6126;57.908;16.490;2022-08-25T17:28:02;20.80;68.20
12125;DHT22;6126;57.908;16.490;2022-08-25T17:30:29;20.80;68.40
12125;DHT22;6126;57.908;16.490;2022-08-25T17:32:57;20.70;68.50
12125;DHT22;6126;57.908;16.490;2022-08-25T17:35:25;20.70;68.80
12125;DHT22;6126;57.908;16.490;2022-08-25T17:37:51;20.70;68.90
12125;DHT22;6126;57.908;16.490;2022-08-25T17:40:17;20.50;68.90
12125;DHT22;6126;57.908;16.490;2022-08-25T17:42:44;20.40;69.30
12125;DHT22;6126;57.908;16.490;2022-08-25T17:45:09;20.30;69.60
12125;DHT22;6126;57.908;16.490;2022-08-25T17:47:35;20.20;69.80
12125;DHT22;6126;57.908;16.490;2022-08-25T17:50:02;20.10;70.00
12125;DHT22;6126;57.908;16.490;2022-08-25T17:52:28;20.10;70.10
12125;DHT22;6126;57.908;16.490;2022-08-25T17:54:54;20.00;70.40
12125;DHT22;6126;57.908;16.490;2022-08-25T17:57:20;19.90;70.50
12125;DHT22;6126;57.908;16.490;2022-08-25T17:59:45;19.90;70.80
12125;DHT22;6126;57.908;16.490;2022-08-25T18:02:11;19.80;70.90
12125;DHT22;6126;57.908;16.490;2022-08-25T18:04:37;19.70;71.10
12125;DHT22;6126;57.908;16.490;2022-08-25T18:07:04;19.60;71.30